VCG3G LFMQ-LFPB
Flight info
| Callsign | VCG3G |
|---|---|
| Flight time | 1h 22m |
| Altitude | 40000 |
| Route | MTL A3 MURRO/N0395F180 A3 MOU |
| Aircraft | E55P/M-SDGRWY/L |
Departure
| Time | 2026-04-25 20:10 |
|---|---|
| Airport | Le Castellet Airport (LFMQ) |
Arrival
| Time | 2026-04-25 21:32 |
|---|---|
| Airport | Paris-Le Bourget International Airport (LFPB) |
| Time | Latitude | Longitude | Altitude | Speed | Heading |
|---|---|---|---|---|---|
| 2026-04-25 19:53 | 43.25130 | 5.78493 | 1392 ft | 0 kts | 307° |
| 2026-04-25 20:04 | 43.25131 | 5.78491 | 1392 ft | 0 kts | 307° |
| 2026-04-25 20:05 | 43.25136 | 5.78486 | 1392 ft | 1 kts | 346° |
| 2026-04-25 20:05 | 43.25144 | 5.78496 | 1392 ft | 3 kts | 74° |
| 2026-04-25 20:05 | 43.25155 | 5.78545 | 1392 ft | 5 kts | 55° |
| 2026-04-25 20:05 | 43.25191 | 5.78585 | 1392 ft | 4 kts | 37° |
| 2026-04-25 20:06 | 43.25203 | 5.78609 | 1392 ft | 4 kts | 86° |
| 2026-04-25 20:06 | 43.25180 | 5.78662 | 1392 ft | 10 kts | 126° |
| 2026-04-25 20:06 | 43.25116 | 5.78782 | 1392 ft | 18 kts | 127° |
| 2026-04-25 20:06 | 43.25033 | 5.78934 | 1392 ft | 21 kts | 126° |
| 2026-04-25 20:07 | 43.24941 | 5.79102 | 1392 ft | 22 kts | 128° |
| 2026-04-25 20:07 | 43.24851 | 5.79267 | 1392 ft | 20 kts | 127° |
| 2026-04-25 20:07 | 43.24789 | 5.79350 | 1392 ft | 7 kts | 119° |
| 2026-04-25 20:07 | 43.24795 | 5.79371 | 1392 ft | 2 kts | 308° |
| 2026-04-25 20:08 | 43.24804 | 5.79355 | 1392 ft | 1 kts | 307° |
| 2026-04-25 20:08 | 43.24809 | 5.79345 | 1392 ft | 1 kts | 307° |
| 2026-04-25 20:08 | 43.24884 | 5.79206 | 1392 ft | 44 kts | 308° |
| 2026-04-25 20:08 | 43.25145 | 5.78730 | 1392 ft | 91 kts | 307° |
| 2026-04-25 20:09 | 43.25470 | 5.78139 | 1392 ft | 120 kts | 307° |
| 2026-04-25 20:09 | 43.26032 | 5.77103 | 1475 ft | 142 kts | 307° |
| 2026-04-25 20:09 | 43.26650 | 5.75968 | 1754 ft | 155 kts | 307° |
| 2026-04-25 20:09 | 43.27208 | 5.74601 | 1899 ft | 180 kts | 281° |
| 2026-04-25 20:10 | 43.27259 | 5.72805 | 2184 ft | 197 kts | 273° |
| 2026-04-25 20:10 | 43.27344 | 5.70851 | 2514 ft | 211 kts | 276° |
| 2026-04-25 20:10 | 43.27442 | 5.69324 | 2806 ft | 219 kts | 277° |
| 2026-04-25 20:11 | 43.27533 | 5.67993 | 3457 ft | 225 kts | 277° |
| 2026-04-25 20:11 | 43.27686 | 5.65806 | 4310 ft | 243 kts | 277° |
| 2026-04-25 20:11 | 43.27848 | 5.63496 | 5465 ft | 247 kts | 278° |
| 2026-04-25 20:11 | 43.28295 | 5.61303 | 6636 ft | 244 kts | 300° |
| 2026-04-25 20:12 | 43.29012 | 5.59205 | 7732 ft | 249 kts | 297° |
| 2026-04-25 20:12 | 43.29723 | 5.57064 | 8754 ft | 256 kts | 297° |
| 2026-04-25 20:12 | 43.30450 | 5.54852 | 9788 ft | 262 kts | 297° |
| 2026-04-25 20:12 | 43.30947 | 5.53343 | 10486 ft | 265 kts | 297° |
| 2026-04-25 20:13 | 43.32067 | 5.50360 | 11900 ft | 266 kts | 310° |
| 2026-04-25 20:13 | 43.33447 | 5.48764 | 12909 ft | 266 kts | 332° |
| 2026-04-25 20:13 | 43.35089 | 5.47626 | 13898 ft | 269 kts | 336° |
| 2026-04-25 20:13 | 43.36792 | 5.46603 | 14859 ft | 273 kts | 338° |
| 2026-04-25 20:14 | 43.38558 | 5.45588 | 15798 ft | 278 kts | 338° |
| 2026-04-25 20:14 | 43.40353 | 5.44568 | 16726 ft | 283 kts | 338° |
| 2026-04-25 20:14 | 43.42168 | 5.43540 | 17617 ft | 287 kts | 338° |
| 2026-04-25 20:14 | 43.43993 | 5.42505 | 18494 ft | 291 kts | 338° |
| 2026-04-25 20:15 | 43.45879 | 5.41434 | 19368 ft | 296 kts | 338° |
| 2026-04-25 20:15 | 43.47786 | 5.40352 | 20227 ft | 300 kts | 338° |
| 2026-04-25 20:15 | 43.49702 | 5.39263 | 21050 ft | 305 kts | 338° |
| 2026-04-25 20:15 | 43.51665 | 5.38148 | 21871 ft | 309 kts | 338° |
| 2026-04-25 20:16 | 43.53645 | 5.37021 | 22673 ft | 313 kts | 338° |
| 2026-04-25 20:16 | 43.55732 | 5.36079 | 23424 ft | 317 kts | 352° |
| 2026-04-25 20:16 | 43.57894 | 5.35716 | 24088 ft | 319 kts | 353° |
| 2026-04-25 20:16 | 43.60126 | 5.35346 | 24691 ft | 322 kts | 353° |
| 2026-04-25 20:17 | 43.62330 | 5.34991 | 25268 ft | 324 kts | 353° |
| 2026-04-25 20:17 | 43.64588 | 5.34635 | 25851 ft | 326 kts | 353° |
| 2026-04-25 20:17 | 43.66840 | 5.34288 | 26395 ft | 329 kts | 353° |
| 2026-04-25 20:17 | 43.69123 | 5.33943 | 26945 ft | 331 kts | 353° |
| 2026-04-25 20:18 | 43.71415 | 5.33604 | 27486 ft | 333 kts | 353° |
| 2026-04-25 20:18 | 43.74502 | 5.33156 | 28184 ft | 336 kts | 353° |
| 2026-04-25 20:18 | 43.76051 | 5.32936 | 28526 ft | 338 kts | 353° |
| 2026-04-25 20:18 | 43.78409 | 5.32605 | 29042 ft | 340 kts | 353° |
| 2026-04-25 20:19 | 43.80760 | 5.32285 | 29609 ft | 340 kts | 353° |
| 2026-04-25 20:19 | 43.83177 | 5.31961 | 29762 ft | 353 kts | 353° |
| 2026-04-25 20:19 | 43.85641 | 5.31628 | 30027 ft | 360 kts | 353° |
| 2026-04-25 20:19 | 43.88171 | 5.31287 | 30074 ft | 373 kts | 353° |
| 2026-04-25 20:20 | 43.90809 | 5.30929 | 30093 ft | 386 kts | 353° |
| 2026-04-25 20:20 | 43.93571 | 5.30556 | 30113 ft | 398 kts | 353° |
| 2026-04-25 20:20 | 43.96394 | 5.30174 | 30129 ft | 409 kts | 353° |
| 2026-04-25 20:20 | 43.99261 | 5.29780 | 30134 ft | 418 kts | 353° |
| 2026-04-25 20:21 | 44.04982 | 5.29007 | 32614 ft | 374 kts | 353° |
| 2026-04-25 20:21 | 44.07364 | 5.28726 | 34630 ft | 332 kts | 353° |
| 2026-04-25 20:21 | 44.09615 | 5.28486 | 35257 ft | 330 kts | 353° |
| 2026-04-25 20:22 | 44.11939 | 5.28235 | 35599 ft | 334 kts | 353° |
| 2026-04-25 20:22 | 44.13509 | 5.28064 | 35842 ft | 337 kts | 353° |
| 2026-04-25 20:22 | 44.16647 | 5.27723 | 36312 ft | 342 kts | 353° |
| 2026-04-25 20:22 | 44.19038 | 5.27460 | 36668 ft | 346 kts | 353° |
| 2026-04-25 20:23 | 44.21473 | 5.27193 | 37109 ft | 347 kts | 353° |
| 2026-04-25 20:23 | 44.23867 | 5.26935 | 37602 ft | 346 kts | 353° |
| 2026-04-25 20:23 | 44.26277 | 5.26675 | 38033 ft | 347 kts | 353° |
| 2026-04-25 20:23 | 44.28724 | 5.26403 | 38087 ft | 358 kts | 353° |
| 2026-04-25 20:24 | 44.31250 | 5.26121 | 38100 ft | 369 kts | 353° |
| 2026-04-25 20:24 | 44.33818 | 5.25832 | 38105 ft | 380 kts | 353° |
| 2026-04-25 20:24 | 44.36496 | 5.25525 | 38108 ft | 391 kts | 353° |
| 2026-04-25 20:24 | 44.39238 | 5.25201 | 38117 ft | 401 kts | 353° |
| 2026-04-25 20:25 | 44.44941 | 5.24529 | 38120 ft | 420 kts | 353° |
| 2026-04-25 20:25 | 44.50845 | 5.23811 | 38133 ft | 436 kts | 353° |
| 2026-04-25 20:26 | 44.56886 | 5.23069 | 38122 ft | 431 kts | 353° |
| 2026-04-25 20:26 | 44.62830 | 5.22348 | 38114 ft | 431 kts | 353° |
| 2026-04-25 20:27 | 44.68831 | 5.21609 | 38117 ft | 432 kts | 353° |
| 2026-04-25 20:27 | 44.74807 | 5.20871 | 38104 ft | 432 kts | 353° |
| 2026-04-25 20:28 | 44.80782 | 5.20139 | 38091 ft | 432 kts | 353° |
| 2026-04-25 20:28 | 44.86799 | 5.19390 | 38087 ft | 431 kts | 353° |
| 2026-04-25 20:29 | 44.92788 | 5.18652 | 38090 ft | 432 kts | 353° |
| 2026-04-25 20:29 | 44.98803 | 5.17811 | 38087 ft | 429 kts | 344° |
| 2026-04-25 20:30 | 45.00605 | 5.16831 | 38401 ft | 422 kts | 329° |
| 2026-04-25 20:30 | 45.03898 | 5.13903 | 39001 ft | 418 kts | 325° |
| 2026-04-25 20:30 | 45.06316 | 5.11623 | 39424 ft | 417 kts | 324° |
| 2026-04-25 20:30 | 45.08689 | 5.09346 | 39841 ft | 415 kts | 324° |
| 2026-04-25 20:31 | 45.11100 | 5.07017 | 40052 ft | 418 kts | 323° |
| 2026-04-25 20:31 | 45.13507 | 5.04684 | 40083 ft | 420 kts | 323° |
| 2026-04-25 20:31 | 45.18333 | 5.00001 | 40077 ft | 423 kts | 323° |
| 2026-04-25 20:32 | 45.23210 | 4.95255 | 40082 ft | 426 kts | 323° |
| 2026-04-25 20:32 | 45.28083 | 4.90503 | 40089 ft | 428 kts | 323° |
| 2026-04-25 20:33 | 45.32985 | 4.85717 | 40087 ft | 426 kts | 323° |
| 2026-04-25 20:33 | 45.37021 | 4.81766 | 40099 ft | 424 kts | 323° |
| 2026-04-25 20:34 | 45.42693 | 4.76199 | 40096 ft | 425 kts | 323° |
| 2026-04-25 20:34 | 45.47563 | 4.71412 | 40101 ft | 427 kts | 323° |
| 2026-04-25 20:35 | 45.52464 | 4.66582 | 40103 ft | 427 kts | 323° |
| 2026-04-25 20:35 | 45.57331 | 4.61778 | 40106 ft | 424 kts | 323° |
| 2026-04-25 20:36 | 45.62146 | 4.57013 | 40108 ft | 423 kts | 323° |
| 2026-04-25 20:36 | 45.66993 | 4.52205 | 40115 ft | 427 kts | 323° |
| 2026-04-25 20:37 | 45.71877 | 4.47352 | 40119 ft | 428 kts | 323° |
| 2026-04-25 20:37 | 45.76776 | 4.42472 | 40111 ft | 425 kts | 323° |
| 2026-04-25 20:38 | 45.81620 | 4.37637 | 40125 ft | 422 kts | 323° |
| 2026-04-25 20:38 | 45.86431 | 4.32825 | 40117 ft | 424 kts | 323° |
| 2026-04-25 20:39 | 45.91290 | 4.27952 | 40119 ft | 428 kts | 323° |
| 2026-04-25 20:39 | 45.95377 | 4.23848 | 40119 ft | 427 kts | 323° |
| 2026-04-25 20:40 | 46.01034 | 4.18153 | 40116 ft | 424 kts | 323° |
| 2026-04-25 20:40 | 46.05855 | 4.13289 | 40125 ft | 423 kts | 322° |
| 2026-04-25 20:41 | 46.10717 | 4.08371 | 40122 ft | 427 kts | 323° |
| 2026-04-25 20:41 | 46.15607 | 4.03416 | 40124 ft | 428 kts | 323° |
| 2026-04-25 20:42 | 46.20444 | 3.98503 | 40121 ft | 425 kts | 323° |
| 2026-04-25 20:42 | 46.25277 | 3.93583 | 40124 ft | 422 kts | 323° |
| 2026-04-25 20:43 | 46.30094 | 3.88669 | 40119 ft | 425 kts | 323° |
| 2026-04-25 20:43 | 46.34966 | 3.83686 | 40123 ft | 428 kts | 323° |
| 2026-04-25 20:44 | 46.37536 | 3.81500 | 40107 ft | 431 kts | 336° |
| 2026-04-25 20:44 | 46.40351 | 3.79929 | 40114 ft | 429 kts | 336° |
| 2026-04-25 20:44 | 46.45898 | 3.76709 | 40123 ft | 427 kts | 336° |
| 2026-04-25 20:45 | 46.51480 | 3.73673 | 40126 ft | 430 kts | 337° |
| 2026-04-25 20:45 | 46.57073 | 3.70623 | 40133 ft | 432 kts | 337° |
| 2026-04-25 20:46 | 46.62701 | 3.67545 | 40122 ft | 431 kts | 337° |
| 2026-04-25 20:46 | 46.68299 | 3.64476 | 40125 ft | 428 kts | 337° |
| 2026-04-25 20:47 | 46.74006 | 3.62371 | 39827 ft | 431 kts | 1° |
| 2026-04-25 20:47 | 46.76965 | 3.63391 | 39330 ft | 437 kts | 21° |
| 2026-04-25 20:47 | 46.79829 | 3.64779 | 38737 ft | 432 kts | 9° |
| 2026-04-25 20:48 | 46.82746 | 3.65587 | 38128 ft | 426 kts | 7° |
| 2026-04-25 20:48 | 46.85684 | 3.66272 | 37496 ft | 421 kts | 6° |
| 2026-04-25 20:48 | 46.88570 | 3.66900 | 36879 ft | 417 kts | 6° |
| 2026-04-25 20:48 | 46.91419 | 3.67504 | 36359 ft | 413 kts | 5° |
| 2026-04-25 20:49 | 46.94225 | 3.68095 | 35896 ft | 409 kts | 5° |
| 2026-04-25 20:49 | 46.97052 | 3.68690 | 35425 ft | 406 kts | 5° |
| 2026-04-25 20:49 | 46.99823 | 3.69275 | 34957 ft | 403 kts | 5° |
| 2026-04-25 20:49 | 47.02630 | 3.69863 | 34444 ft | 415 kts | 5° |
| 2026-04-25 20:50 | 47.05524 | 3.70467 | 33922 ft | 435 kts | 5° |
| 2026-04-25 20:50 | 47.08543 | 3.71109 | 33383 ft | 440 kts | 6° |
| 2026-04-25 20:50 | 47.11613 | 3.71756 | 32832 ft | 441 kts | 6° |
| 2026-04-25 20:50 | 47.14637 | 3.72401 | 32277 ft | 436 kts | 6° |
| 2026-04-25 20:51 | 47.17598 | 3.73028 | 31733 ft | 432 kts | 6° |
| 2026-04-25 20:51 | 47.20541 | 3.73653 | 31189 ft | 427 kts | 6° |
| 2026-04-25 20:51 | 47.23484 | 3.74277 | 30643 ft | 428 kts | 6° |
| 2026-04-25 20:51 | 47.26414 | 3.74900 | 30137 ft | 430 kts | 6° |
| 2026-04-25 20:52 | 47.29407 | 3.75537 | 29623 ft | 432 kts | 6° |
| 2026-04-25 20:52 | 47.31390 | 3.75961 | 29281 ft | 432 kts | 6° |
| 2026-04-25 20:52 | 47.35316 | 3.76799 | 28673 ft | 429 kts | 6° |
| 2026-04-25 20:52 | 47.38280 | 3.77431 | 28412 ft | 428 kts | 6° |
| 2026-04-25 20:53 | 47.41214 | 3.78059 | 28175 ft | 426 kts | 6° |
| 2026-04-25 20:53 | 47.44117 | 3.78681 | 28151 ft | 428 kts | 6° |
| 2026-04-25 20:53 | 47.50001 | 3.79943 | 27562 ft | 424 kts | 6° |
| 2026-04-25 20:54 | 47.52896 | 3.80567 | 26997 ft | 419 kts | 6° |
| 2026-04-25 20:54 | 47.55761 | 3.81181 | 26434 ft | 415 kts | 6° |
| 2026-04-25 20:54 | 47.58614 | 3.81798 | 25864 ft | 410 kts | 6° |
| 2026-04-25 20:54 | 47.61389 | 3.82375 | 25312 ft | 406 kts | 6° |
| 2026-04-25 20:55 | 47.64176 | 3.82975 | 24766 ft | 402 kts | 7° |
| 2026-04-25 20:55 | 47.66949 | 3.83588 | 24288 ft | 402 kts | 6° |
| 2026-04-25 20:55 | 47.69686 | 3.84184 | 23803 ft | 397 kts | 6° |
| 2026-04-25 20:55 | 47.72372 | 3.84766 | 23350 ft | 392 kts | 6° |
| 2026-04-25 20:56 | 47.75080 | 3.85356 | 22925 ft | 390 kts | 6° |
| 2026-04-25 20:56 | 47.77725 | 3.85929 | 22505 ft | 389 kts | 6° |
| 2026-04-25 20:56 | 47.80402 | 3.86511 | 22133 ft | 379 kts | 6° |
| 2026-04-25 20:56 | 47.82955 | 3.87066 | 21807 ft | 375 kts | 6° |
| 2026-04-25 20:57 | 47.85543 | 3.87629 | 21391 ft | 379 kts | 6° |
| 2026-04-25 20:57 | 47.88147 | 3.88194 | 20967 ft | 378 kts | 6° |
| 2026-04-25 20:57 | 47.90744 | 3.88762 | 20570 ft | 375 kts | 6° |
| 2026-04-25 20:57 | 47.93329 | 3.89326 | 20167 ft | 371 kts | 6° |
| 2026-04-25 20:58 | 47.95838 | 3.89876 | 19776 ft | 367 kts | 6° |
| 2026-04-25 20:58 | 47.98363 | 3.90428 | 19397 ft | 363 kts | 6° |
| 2026-04-25 20:58 | 48.00822 | 3.90967 | 19040 ft | 349 kts | 6° |
| 2026-04-25 20:58 | 48.03167 | 3.91480 | 18761 ft | 334 kts | 6° |
| 2026-04-25 20:59 | 48.05429 | 3.91977 | 18457 ft | 328 kts | 6° |
| 2026-04-25 20:59 | 48.07659 | 3.92465 | 18120 ft | 326 kts | 6° |
| 2026-04-25 20:59 | 48.09897 | 3.92956 | 17762 ft | 321 kts | 6° |
| 2026-04-25 20:59 | 48.12089 | 3.93438 | 17391 ft | 320 kts | 6° |
| 2026-04-25 21:00 | 48.14280 | 3.93919 | 17008 ft | 314 kts | 6° |
| 2026-04-25 21:00 | 48.15700 | 3.94233 | 16746 ft | 311 kts | 6° |
| 2026-04-25 21:00 | 48.20626 | 3.95319 | 15793 ft | 303 kts | 6° |
| 2026-04-25 21:01 | 48.22683 | 3.95773 | 15349 ft | 300 kts | 6° |
| 2026-04-25 21:01 | 48.24719 | 3.95755 | 15148 ft | 288 kts | 342° |
| 2026-04-25 21:01 | 48.26416 | 3.94277 | 14877 ft | 287 kts | 315° |
| 2026-04-25 21:01 | 48.27805 | 3.92065 | 14488 ft | 290 kts | 314° |
| 2026-04-25 21:02 | 48.29200 | 3.89894 | 14050 ft | 292 kts | 314° |
| 2026-04-25 21:02 | 48.30598 | 3.87698 | 13619 ft | 293 kts | 314° |
| 2026-04-25 21:02 | 48.31997 | 3.85493 | 13209 ft | 292 kts | 314° |
| 2026-04-25 21:02 | 48.33389 | 3.83298 | 12803 ft | 291 kts | 314° |
| 2026-04-25 21:03 | 48.34784 | 3.81094 | 12401 ft | 289 kts | 314° |
| 2026-04-25 21:03 | 48.36146 | 3.78940 | 11986 ft | 288 kts | 314° |
| 2026-04-25 21:03 | 48.37526 | 3.76756 | 11559 ft | 286 kts | 314° |
| 2026-04-25 21:03 | 48.38882 | 3.74608 | 11149 ft | 284 kts | 314° |
| 2026-04-25 21:04 | 48.40246 | 3.72447 | 10752 ft | 286 kts | 314° |
| 2026-04-25 21:04 | 48.41627 | 3.70254 | 10346 ft | 289 kts | 315° |
| 2026-04-25 21:04 | 48.42982 | 3.68103 | 9941 ft | 285 kts | 315° |
| 2026-04-25 21:04 | 48.44346 | 3.65935 | 9530 ft | 282 kts | 315° |
| 2026-04-25 21:05 | 48.45674 | 3.63824 | 9214 ft | 277 kts | 315° |
| 2026-04-25 21:05 | 48.46984 | 3.61739 | 9162 ft | 267 kts | 315° |
| 2026-04-25 21:05 | 48.48235 | 3.59748 | 9152 ft | 257 kts | 315° |
| 2026-04-25 21:05 | 48.49451 | 3.57809 | 9154 ft | 249 kts | 315° |
| 2026-04-25 21:06 | 48.50632 | 3.55925 | 9155 ft | 245 kts | 315° |
| 2026-04-25 21:06 | 48.51803 | 3.54058 | 9155 ft | 246 kts | 315° |
| 2026-04-25 21:06 | 48.52981 | 3.52179 | 8782 ft | 249 kts | 315° |
| 2026-04-25 21:06 | 48.53763 | 3.50927 | 8500 ft | 247 kts | 315° |
| 2026-04-25 21:07 | 48.55323 | 3.48430 | 7923 ft | 242 kts | 315° |
| 2026-04-25 21:07 | 48.56465 | 3.46603 | 7498 ft | 240 kts | 315° |
| 2026-04-25 21:07 | 48.57598 | 3.44789 | 7200 ft | 235 kts | 315° |
| 2026-04-25 21:07 | 48.58727 | 3.42983 | 7167 ft | 239 kts | 315° |
| 2026-04-25 21:08 | 48.59880 | 3.41134 | 7161 ft | 239 kts | 315° |
| 2026-04-25 21:08 | 48.61017 | 3.39314 | 7159 ft | 240 kts | 315° |
| 2026-04-25 21:08 | 48.62168 | 3.37472 | 7163 ft | 241 kts | 315° |
| 2026-04-25 21:08 | 48.63310 | 3.35643 | 7161 ft | 242 kts | 316° |
| 2026-04-25 21:09 | 48.65710 | 3.32037 | 7159 ft | 240 kts | 317° |
| 2026-04-25 21:09 | 48.66886 | 3.30277 | 7161 ft | 238 kts | 316° |
| 2026-04-25 21:09 | 48.68057 | 3.28525 | 7162 ft | 237 kts | 316° |
| 2026-04-25 21:10 | 48.69228 | 3.26772 | 7161 ft | 237 kts | 316° |
| 2026-04-25 21:10 | 48.70419 | 3.24986 | 7164 ft | 237 kts | 317° |
| 2026-04-25 21:10 | 48.71582 | 3.23242 | 7164 ft | 238 kts | 317° |
| 2026-04-25 21:10 | 48.72765 | 3.21469 | 7165 ft | 238 kts | 316° |
| 2026-04-25 21:11 | 48.73947 | 3.19699 | 7164 ft | 239 kts | 317° |
| 2026-04-25 21:11 | 48.75129 | 3.17925 | 7163 ft | 239 kts | 317° |
| 2026-04-25 21:11 | 48.76306 | 3.16162 | 7160 ft | 240 kts | 317° |
| 2026-04-25 21:11 | 48.77497 | 3.14374 | 7166 ft | 240 kts | 317° |
| 2026-04-25 21:12 | 48.78682 | 3.12588 | 7164 ft | 241 kts | 317° |
| 2026-04-25 21:12 | 48.79868 | 3.10807 | 7164 ft | 241 kts | 317° |
| 2026-04-25 21:12 | 48.81053 | 3.09024 | 7163 ft | 240 kts | 317° |
| 2026-04-25 21:12 | 48.81836 | 3.07845 | 7163 ft | 240 kts | 317° |
| 2026-04-25 21:13 | 48.83418 | 3.05465 | 7164 ft | 239 kts | 316° |
| 2026-04-25 21:13 | 48.84210 | 3.03293 | 7168 ft | 242 kts | 281° |
| 2026-04-25 21:13 | 48.84149 | 3.00723 | 7181 ft | 245 kts | 266° |
| 2026-04-25 21:13 | 48.83995 | 2.98125 | 7163 ft | 248 kts | 267° |
| 2026-04-25 21:14 | 48.83837 | 2.95515 | 7161 ft | 248 kts | 266° |
| 2026-04-25 21:14 | 48.83682 | 2.92936 | 7165 ft | 249 kts | 267° |
| 2026-04-25 21:14 | 48.83523 | 2.90310 | 7166 ft | 250 kts | 267° |
| 2026-04-25 21:14 | 48.83365 | 2.87685 | 7162 ft | 250 kts | 267° |
| 2026-04-25 21:15 | 48.83208 | 2.85044 | 7173 ft | 250 kts | 267° |
| 2026-04-25 21:15 | 48.83053 | 2.82442 | 7158 ft | 247 kts | 267° |
| 2026-04-25 21:15 | 48.82899 | 2.79853 | 7133 ft | 243 kts | 267° |
| 2026-04-25 21:15 | 48.82745 | 2.77308 | 7170 ft | 243 kts | 267° |
| 2026-04-25 21:16 | 48.82589 | 2.74741 | 7118 ft | 244 kts | 267° |
| 2026-04-25 21:16 | 48.82437 | 2.72192 | 7159 ft | 243 kts | 267° |
| 2026-04-25 21:16 | 48.82284 | 2.69632 | 7170 ft | 244 kts | 267° |
| 2026-04-25 21:16 | 48.82127 | 2.67046 | 7166 ft | 245 kts | 267° |
| 2026-04-25 21:17 | 48.81974 | 2.64485 | 7167 ft | 245 kts | 267° |
| 2026-04-25 21:17 | 48.81820 | 2.61882 | 7165 ft | 245 kts | 267° |
| 2026-04-25 21:17 | 48.81668 | 2.59298 | 7163 ft | 245 kts | 267° |
| 2026-04-25 21:17 | 48.81515 | 2.56736 | 7166 ft | 245 kts | 267° |
| 2026-04-25 21:18 | 48.81362 | 2.54160 | 7165 ft | 244 kts | 267° |
| 2026-04-25 21:18 | 48.81206 | 2.51586 | 7167 ft | 244 kts | 267° |
| 2026-04-25 21:18 | 48.81052 | 2.49010 | 7168 ft | 246 kts | 267° |
| 2026-04-25 21:18 | 48.80898 | 2.46446 | 7169 ft | 247 kts | 267° |
| 2026-04-25 21:19 | 48.80739 | 2.43847 | 7168 ft | 248 kts | 267° |
| 2026-04-25 21:19 | 48.80582 | 2.41236 | 7166 ft | 247 kts | 267° |
| 2026-04-25 21:19 | 48.80428 | 2.38649 | 7166 ft | 247 kts | 267° |
| 2026-04-25 21:19 | 48.80275 | 2.36047 | 7165 ft | 246 kts | 267° |
| 2026-04-25 21:20 | 48.80123 | 2.33472 | 7163 ft | 246 kts | 266° |
| 2026-04-25 21:20 | 48.80020 | 2.31745 | 7164 ft | 245 kts | 266° |
| 2026-04-25 21:20 | 48.79819 | 2.28401 | 7158 ft | 234 kts | 266° |
| 2026-04-25 21:20 | 48.79673 | 2.25999 | 7158 ft | 226 kts | 266° |
| 2026-04-25 21:21 | 48.79526 | 2.23620 | 7162 ft | 223 kts | 266° |
| 2026-04-25 21:21 | 48.79383 | 2.21298 | 7161 ft | 224 kts | 266° |
| 2026-04-25 21:21 | 48.79239 | 2.18937 | 6795 ft | 227 kts | 266° |
| 2026-04-25 21:21 | 48.79094 | 2.16554 | 6426 ft | 226 kts | 266° |
| 2026-04-25 21:22 | 48.78953 | 2.14203 | 6105 ft | 223 kts | 266° |
| 2026-04-25 21:22 | 48.78815 | 2.11893 | 5783 ft | 221 kts | 266° |
| 2026-04-25 21:22 | 48.78679 | 2.09583 | 5459 ft | 219 kts | 266° |
| 2026-04-25 21:22 | 48.78543 | 2.07294 | 5136 ft | 217 kts | 266° |
| 2026-04-25 21:23 | 48.78407 | 2.05018 | 4816 ft | 219 kts | 266° |
| 2026-04-25 21:23 | 48.78282 | 2.02724 | 4496 ft | 218 kts | 270° |
| 2026-04-25 21:23 | 48.78746 | 2.00623 | 4169 ft | 211 kts | 314° |
| 2026-04-25 21:23 | 48.80007 | 1.99657 | 3874 ft | 205 kts | 358° |
| 2026-04-25 21:24 | 48.81295 | 2.00320 | 3645 ft | 204 kts | 42° |
| 2026-04-25 21:24 | 48.82211 | 2.01977 | 3433 ft | 207 kts | 51° |
| 2026-04-25 21:24 | 48.83106 | 2.03705 | 3189 ft | 205 kts | 51° |
| 2026-04-25 21:24 | 48.83982 | 2.05401 | 2987 ft | 200 kts | 51° |
| 2026-04-25 21:25 | 48.84820 | 2.07025 | 2957 ft | 196 kts | 51° |
| 2026-04-25 21:25 | 48.85670 | 2.08676 | 2964 ft | 200 kts | 51° |
| 2026-04-25 21:25 | 48.86529 | 2.10344 | 2959 ft | 199 kts | 51° |
| 2026-04-25 21:25 | 48.87377 | 2.11996 | 2959 ft | 199 kts | 51° |
| 2026-04-25 21:26 | 48.88241 | 2.13679 | 2960 ft | 201 kts | 51° |
| 2026-04-25 21:26 | 48.89092 | 2.15341 | 2960 ft | 199 kts | 51° |
| 2026-04-25 21:26 | 48.89931 | 2.16979 | 2951 ft | 193 kts | 51° |
| 2026-04-25 21:26 | 48.90584 | 2.18711 | 2910 ft | 190 kts | 81° |
| 2026-04-25 21:27 | 48.90575 | 2.20693 | 2913 ft | 183 kts | 85° |
| 2026-04-25 21:27 | 48.90972 | 2.22437 | 2989 ft | 173 kts | 61° |
| 2026-04-25 21:27 | 48.91501 | 2.24067 | 2982 ft | 170 kts | 65° |
| 2026-04-25 21:27 | 48.91968 | 2.25715 | 2968 ft | 168 kts | 64° |
| 2026-04-25 21:28 | 48.92438 | 2.27364 | 2705 ft | 176 kts | 66° |
| 2026-04-25 21:28 | 48.92874 | 2.29130 | 2293 ft | 174 kts | 69° |
| 2026-04-25 21:28 | 48.93236 | 2.30840 | 1811 ft | 162 kts | 70° |
| 2026-04-25 21:28 | 48.93589 | 2.32330 | 1600 ft | 137 kts | 62° |
| 2026-04-25 21:29 | 48.94020 | 2.33517 | 1527 ft | 121 kts | 57° |
| 2026-04-25 21:29 | 48.94392 | 2.34648 | 1354 ft | 119 kts | 64° |
| 2026-04-25 21:29 | 48.94682 | 2.35836 | 1103 ft | 118 kts | 68° |
| 2026-04-25 21:29 | 48.94972 | 2.36931 | 907 ft | 108 kts | 63° |
| 2026-04-25 21:30 | 48.95266 | 2.37976 | 770 ft | 107 kts | 63° |
| 2026-04-25 21:30 | 48.95551 | 2.38994 | 657 ft | 102 kts | 64° |
| 2026-04-25 21:30 | 48.95845 | 2.40071 | 571 ft | 112 kts | 64° |
| 2026-04-25 21:30 | 48.96036 | 2.40779 | 456 ft | 108 kts | 64° |
| 2026-04-25 21:31 | 48.96106 | 2.41037 | 406 ft | 107 kts | 62° |
| 2026-04-25 21:31 | 48.96328 | 2.41833 | 279 ft | 102 kts | 63° |
| 2026-04-25 21:31 | 48.96594 | 2.42813 | 160 ft | 100 kts | 64° |
| 2026-04-25 21:31 | 48.96834 | 2.43710 | 169 ft | 81 kts | 65° |
| 2026-04-25 21:32 | 48.96949 | 2.44185 | 176 ft | 20 kts | 94° |
| 2026-04-25 21:32 | 48.96907 | 2.44340 | 175 ft | 12 kts | 132° |
| 2026-04-25 21:32 | 48.96845 | 2.44400 | 174 ft | 10 kts | 163° |
| 2026-04-25 21:32 | 48.96765 | 2.44432 | 172 ft | 13 kts | 162° |
| 2026-04-25 21:33 | 48.96674 | 2.44478 | 171 ft | 14 kts | 162° |
| 2026-04-25 21:33 | 48.96574 | 2.44525 | 171 ft | 15 kts | 166° |
| 2026-04-25 21:33 | 48.96465 | 2.44546 | 169 ft | 15 kts | 173° |
| 2026-04-25 21:33 | 48.96355 | 2.44525 | 166 ft | 17 kts | 204° |
| 2026-04-25 21:34 | 48.96244 | 2.44445 | 163 ft | 18 kts | 203° |
| 2026-04-25 21:34 | 48.96130 | 2.44366 | 158 ft | 17 kts | 204° |
| 2026-04-25 21:34 | 48.96005 | 2.44278 | 151 ft | 21 kts | 205° |
| 2026-04-25 21:34 | 48.95863 | 2.44178 | 147 ft | 20 kts | 205° |
| 2026-04-25 21:35 | 48.95735 | 2.44089 | 142 ft | 21 kts | 201° |
| 2026-04-25 21:35 | 48.95623 | 2.44010 | 140 ft | 12 kts | 205° |
| 2026-04-25 21:35 | 48.95541 | 2.43951 | 139 ft | 13 kts | 206° |
| 2026-04-25 21:35 | 48.95450 | 2.43879 | 138 ft | 15 kts | 208° |
| 2026-04-25 21:36 | 48.95356 | 2.43803 | 139 ft | 15 kts | 208° |
| 2026-04-25 21:36 | 48.95256 | 2.43722 | 139 ft | 16 kts | 207° |
| 2026-04-25 21:36 | 48.95153 | 2.43638 | 139 ft | 17 kts | 208° |
| 2026-04-25 21:36 | 48.95065 | 2.43568 | 140 ft | 8 kts | 201° |
| 2026-04-25 21:37 | 48.95006 | 2.43532 | 140 ft | 9 kts | 201° |
| 2026-04-25 21:37 | 48.94968 | 2.43508 | 141 ft | 5 kts | 188° |
| 2026-04-25 21:37 | 48.94951 | 2.43525 | 142 ft | 0 kts | 120° |
| 2026-04-25 21:37 | 48.94960 | 2.43540 | 142 ft | 1 kts | 28° |